createdAt,value
2023-07-05T00:00:46.039Z,0.00
2023-07-05T00:01:46.079Z,0.00
2023-07-05T00:02:46.441Z,0.00
2023-07-05T00:03:46.364Z,0.00
2023-07-05T00:04:46.008Z,0.00
2023-07-05T00:05:45.991Z,0.00
2023-07-05T00:06:45.969Z,0.00
2023-07-05T00:07:46.262Z,0.00
2023-07-05T00:08:45.944Z,0.00
2023-07-05T00:09:45.929Z,0.00
2023-07-05T00:10:45.927Z,0.00
2023-07-05T00:11:45.896Z,0.00
2023-07-05T00:12:46.267Z,0.00
2023-07-05T00:13:45.930Z,0.00
2023-07-05T00:14:45.872Z,0.00
2023-07-05T00:15:45.896Z,0.00
2023-07-05T00:16:46.152Z,0.00
2023-07-05T00:17:46.227Z,0.00
2023-07-05T00:18:45.825Z,0.00
2023-07-05T00:19:45.813Z,0.00
2023-07-05T00:20:45.805Z,0.00
2023-07-05T00:21:46.185Z,0.00
2023-07-05T00:22:45.775Z,0.00
2023-07-05T00:23:45.766Z,0.00
2023-07-05T00:24:45.754Z,0.00
2023-07-05T00:25:45.782Z,0.00
2023-07-05T00:26:46.070Z,0.00
2023-07-05T00:27:45.727Z,0.00
2023-07-05T00:28:45.711Z,0.00
2023-07-05T00:29:45.691Z,0.00
2023-07-05T00:30:46.038Z,0.00
2023-07-05T00:31:45.723Z,0.00
2023-07-05T00:32:45.700Z,0.00
2023-07-05T00:33:45.646Z,0.00
2023-07-05T00:34:45.634Z,0.00
2023-07-05T00:35:45.978Z,0.00
2023-07-05T00:36:45.633Z,0.00
2023-07-05T00:37:45.600Z,0.00
2023-07-05T00:38:45.599Z,0.00
2023-07-05T00:39:45.605Z,0.00
2023-07-05T00:40:45.872Z,0.00
2023-07-05T00:41:45.562Z,0.00
2023-07-05T00:42:45.576Z,0.00
2023-07-05T00:43:45.612Z,0.00
2023-07-05T00:44:45.912Z,0.00
2023-07-05T00:45:45.564Z,0.00
2023-07-05T00:46:45.494Z,0.00
2023-07-05T00:47:45.500Z,0.00
2023-07-05T00:48:45.517Z,0.00
2023-07-05T00:49:45.931Z,0.00
2023-07-05T00:50:45.456Z,0.00
2023-07-05T00:51:45.422Z,0.00
2023-07-05T00:52:45.423Z,0.00
2023-07-05T00:53:45.765Z,0.00
2023-07-05T00:54:45.420Z,0.00
2023-07-05T00:55:45.374Z,0.00
2023-07-05T00:56:45.374Z,0.00
2023-07-05T00:57:45.353Z,0.00
2023-07-05T00:58:45.815Z,0.00
2023-07-05T00:59:45.324Z,0.00
2023-07-05T01:00:45.332Z,0.00
2023-07-05T01:02:01.425Z,0.00
2023-07-05T01:02:45.692Z,0.00
2023-07-05T01:03:45.292Z,0.00
2023-07-05T01:04:45.293Z,0.00
2023-07-05T01:05:45.320Z,0.00
2023-07-05T01:06:45.260Z,0.00
2023-07-05T01:07:45.542Z,0.00
2023-07-05T01:08:45.236Z,0.00
2023-07-05T01:09:45.214Z,0.00
2023-07-05T01:10:45.205Z,0.00
2023-07-05T01:11:45.190Z,0.00
2023-07-05T01:12:45.550Z,0.00
2023-07-05T01:13:45.199Z,0.00
2023-07-05T01:14:45.164Z,0.00
2023-07-05T01:15:45.143Z,0.00
2023-07-05T01:16:45.509Z,0.00
2023-07-05T01:17:45.509Z,0.00
2023-07-05T01:18:45.105Z,0.00
2023-07-05T01:19:45.098Z,0.00
2023-07-05T01:20:45.093Z,0.00
2023-07-05T01:21:45.389Z,0.00
2023-07-05T01:22:45.064Z,0.00
2023-07-05T01:23:45.057Z,0.00
2023-07-05T01:24:45.042Z,0.00
2023-07-05T01:25:45.027Z,0.00
2023-07-05T01:26:45.518Z,0.00
2023-07-05T01:27:45.012Z,0.00
2023-07-05T01:28:44.994Z,0.00
2023-07-05T01:29:44.983Z,0.00
2023-07-05T01:30:45.523Z,0.00
2023-07-05T01:31:45.272Z,0.00
2023-07-05T01:32:44.959Z,0.00
2023-07-05T01:33:44.971Z,0.00
2023-07-05T01:34:44.926Z,0.00
2023-07-05T01:35:45.192Z,0.00
2023-07-05T01:36:44.893Z,0.00
2023-07-05T01:37:44.909Z,0.00
2023-07-05T01:38:44.873Z,0.00
2023-07-05T01:39:45.167Z,0.00
2023-07-05T01:40:45.185Z,0.00
2023-07-05T01:41:44.846Z,0.00
2023-07-05T01:42:44.828Z,0.00
2023-07-05T01:43:44.821Z,0.00
2023-07-05T01:44:45.148Z,0.00
2023-07-05T01:45:44.790Z,0.00
2023-07-05T01:46:44.825Z,0.00
2023-07-05T01:47:44.799Z,0.00
2023-07-05T01:48:44.836Z,0.00
2023-07-05T01:49:45.082Z,0.00
2023-07-05T01:50:44.741Z,0.00
2023-07-05T01:51:44.717Z,0.00
2023-07-05T01:52:44.703Z,0.00
2023-07-05T01:53:45.040Z,0.00
2023-07-05T01:54:44.688Z,0.00
2023-07-05T01:55:44.662Z,0.00
2023-07-05T01:56:44.648Z,0.00
2023-07-05T01:57:44.632Z,0.00
2023-07-05T01:58:44.988Z,0.00
2023-07-05T01:59:44.979Z,0.00
2023-07-05T02:00:44.692Z,0.00
2023-07-05T02:01:44.600Z,0.00
2023-07-05T02:02:44.596Z,0.00
2023-07-05T02:03:44.918Z,0.00
2023-07-05T02:04:44.558Z,0.00
2023-07-05T02:05:44.601Z,0.00
2023-07-05T02:06:44.563Z,0.00
2023-07-05T02:07:44.811Z,0.00
2023-07-05T02:08:44.848Z,0.00
2023-07-05T02:09:44.489Z,0.00
2023-07-05T02:10:44.491Z,0.00
2023-07-05T02:11:44.468Z,0.00
2023-07-05T02:12:45.041Z,0.00
2023-07-05T02:13:44.473Z,0.00
2023-07-05T02:14:44.436Z,0.00
2023-07-05T02:15:44.417Z,0.00
2023-07-05T02:16:44.421Z,0.00
2023-07-05T02:17:44.660Z,0.00
2023-07-05T02:18:44.409Z,0.00
2023-07-05T02:19:44.381Z,0.00
2023-07-05T02:20:44.373Z,0.00
2023-07-05T02:21:44.658Z,0.00
2023-07-05T02:22:44.754Z,0.00
2023-07-05T02:23:44.336Z,0.00
2023-07-05T02:24:44.313Z,0.00
2023-07-05T02:25:44.294Z,0.00
2023-07-05T02:26:44.749Z,0.00
2023-07-05T02:27:44.278Z,0.00
2023-07-05T02:28:44.267Z,0.00
2023-07-05T02:29:44.277Z,0.00
2023-07-05T02:30:44.274Z,0.00
2023-07-05T02:31:44.765Z,0.00
2023-07-05T02:32:44.261Z,0.00
2023-07-05T02:33:44.205Z,0.00
2023-07-05T02:34:44.190Z,0.00
2023-07-05T02:35:44.380Z,0.00
2023-07-05T02:36:44.531Z,0.00
2023-07-05T02:37:44.110Z,0.00
2023-07-05T02:38:44.094Z,0.00
2023-07-05T02:39:44.078Z,0.00
2023-07-05T02:40:44.389Z,0.00
2023-07-05T02:41:44.102Z,0.00
2023-07-05T02:42:44.064Z,0.00
2023-07-05T02:43:44.034Z,0.00
2023-07-05T02:44:44.027Z,0.00
2023-07-05T02:45:44.521Z,0.00
2023-07-05T02:46:44.025Z,0.00
2023-07-05T02:47:44.007Z,0.00
2023-07-05T02:48:43.983Z,0.00
2023-07-05T02:49:44.482Z,0.00
2023-07-05T02:50:44.318Z,0.00
2023-07-05T02:51:43.951Z,0.00
2023-07-05T02:52:43.999Z,0.00
2023-07-05T02:53:43.945Z,0.00
2023-07-05T02:54:43.935Z,0.00
2023-07-05T02:55:43.904Z,0.00
2023-07-05T02:56:43.900Z,0.00
2023-07-05T02:57:43.893Z,0.00
2023-07-05T02:58:43.885Z,0.00
2023-07-05T02:59:43.879Z,0.00
2023-07-05T03:00:43.860Z,0.00
2023-07-05T03:01:43.921Z,0.00
2023-07-05T03:02:43.841Z,0.00
2023-07-05T03:03:44.269Z,0.00
2023-07-05T03:04:44.282Z,0.00
2023-07-05T03:05:43.801Z,0.00
2023-07-05T03:06:43.800Z,0.00
2023-07-05T03:07:43.786Z,0.00
2023-07-05T03:08:44.118Z,0.00
2023-07-05T03:09:43.756Z,0.00
2023-07-05T03:10:43.752Z,0.00
2023-07-05T03:11:43.726Z,0.00
2023-07-05T03:12:43.998Z,0.00
2023-07-05T03:13:44.078Z,0.00
2023-07-05T03:14:43.697Z,0.00
2023-07-05T03:15:43.698Z,0.00
2023-07-05T03:16:45.181Z,0.00
2023-07-05T03:17:44.021Z,0.00
2023-07-05T03:18:43.660Z,0.00
2023-07-05T03:19:43.642Z,0.00
2023-07-05T03:20:43.631Z,0.00
2023-07-05T03:21:43.633Z,0.00
2023-07-05T03:22:43.950Z,0.00
2023-07-05T03:23:43.602Z,0.00
2023-07-05T03:24:43.587Z,0.00
2023-07-05T03:25:43.588Z,0.00
2023-07-05T03:26:43.791Z,0.00
2023-07-05T03:27:44.020Z,0.00
2023-07-05T03:28:43.534Z,0.00
2023-07-05T03:29:43.531Z,0.00
2023-07-05T03:30:43.519Z,0.00
2023-07-05T03:31:44.098Z,0.00
2023-07-05T03:32:43.508Z,0.00
2023-07-05T03:33:43.488Z,0.00
2023-07-05T03:34:43.466Z,0.00
2023-07-05T03:35:43.465Z,0.00
2023-07-05T03:36:43.802Z,0.00
2023-07-05T03:37:43.436Z,0.00
2023-07-05T03:38:43.427Z,0.00
2023-07-05T03:39:43.414Z,0.00
2023-07-05T03:40:43.701Z,0.00
2023-07-05T03:41:43.734Z,0.00
2023-07-05T03:42:43.393Z,0.00
2023-07-05T03:43:43.378Z,0.00
2023-07-05T03:44:43.346Z,0.00
2023-07-05T03:45:43.667Z,0.00
2023-07-05T03:46:43.322Z,0.00
2023-07-05T03:47:43.383Z,5.62
2023-07-05T03:48:43.325Z,5.62
2023-07-05T03:49:43.597Z,0.00
2023-07-05T03:50:43.634Z,0.00
2023-07-05T03:51:43.285Z,0.00
2023-07-05T03:52:43.257Z,0.00
2023-07-05T03:53:43.268Z,0.00
2023-07-05T03:54:43.237Z,0.00
2023-07-05T03:55:43.241Z,0.00
2023-07-05T03:56:43.218Z,0.00
2023-07-05T03:57:43.228Z,0.00
2023-07-05T03:58:43.204Z,0.00
2023-07-05T03:59:43.584Z,0.00
2023-07-05T04:00:43.174Z,0.00
2023-07-05T04:01:43.171Z,0.00
2023-07-05T04:02:43.150Z,0.00
2023-07-05T04:03:43.562Z,0.00
2023-07-05T04:04:43.477Z,0.00
2023-07-05T04:05:43.100Z,0.00
2023-07-05T04:06:43.075Z,0.00
2023-07-05T04:07:43.076Z,5.62
2023-07-05T04:08:43.390Z,5.62
2023-07-05T04:09:43.057Z,5.62
2023-07-05T04:10:43.027Z,5.62
2023-07-05T04:11:43.021Z,5.62
2023-07-05T04:12:43.004Z,5.62
2023-07-05T04:13:43.387Z,5.62
2023-07-05T04:14:42.981Z,5.62
2023-07-05T04:15:43.026Z,5.62
2023-07-05T04:16:42.950Z,11.25
2023-07-05T04:17:43.353Z,11.25
2023-07-05T04:18:43.303Z,16.88
2023-07-05T04:19:42.925Z,16.88
2023-07-05T04:20:42.903Z,16.88
2023-07-05T04:21:42.906Z,16.88
2023-07-05T04:22:42.917Z,16.88
2023-07-05T04:23:42.883Z,11.25
2023-07-05T04:24:42.861Z,11.25
2023-07-05T04:25:42.892Z,11.25
2023-07-05T04:26:42.843Z,11.25
2023-07-05T04:27:46.173Z,11.25
2023-07-05T04:28:42.812Z,11.25
2023-07-05T04:29:42.805Z,11.25
2023-07-05T04:30:42.786Z,11.25
2023-07-05T04:31:42.856Z,11.25
2023-07-05T04:32:43.156Z,11.25
2023-07-05T04:33:42.760Z,11.25
2023-07-05T04:34:42.733Z,11.25
2023-07-05T04:35:42.751Z,5.62
2023-07-05T04:36:43.294Z,11.25
2023-07-05T04:37:42.702Z,11.25
2023-07-05T04:38:42.689Z,11.25
2023-07-05T04:39:42.679Z,11.25
2023-07-05T04:40:42.682Z,16.88
2023-07-05T04:41:43.038Z,16.88
2023-07-05T04:42:42.637Z,16.88
2023-07-05T04:43:42.630Z,16.88
2023-07-05T04:44:42.639Z,16.88
2023-07-05T04:45:43.078Z,16.88
2023-07-05T04:46:42.797Z,16.88
2023-07-05T04:47:42.608Z,16.88
2023-07-05T04:48:42.568Z,16.88
2023-07-05T04:49:42.549Z,16.88
2023-07-05T04:50:42.903Z,16.88
2023-07-05T04:51:42.528Z,16.88
2023-07-05T04:52:42.515Z,11.25
2023-07-05T04:53:42.514Z,11.25
2023-07-05T04:54:42.488Z,16.88
2023-07-05T04:55:42.566Z,16.88
2023-07-05T04:56:42.463Z,22.50
2023-07-05T04:57:42.460Z,28.12
2023-07-05T04:58:42.447Z,22.50
2023-07-05T04:59:42.561Z,22.50
2023-07-05T05:00:42.529Z,22.50
2023-07-05T05:01:42.452Z,22.50
2023-07-05T05:02:42.497Z,28.12
2023-07-05T05:03:42.388Z,33.75
2023-07-05T05:04:42.402Z,45.00
2023-07-05T05:05:42.350Z,50.62
2023-07-05T05:06:42.340Z,50.62
2023-07-05T05:07:42.332Z,45.00
2023-07-05T05:08:42.310Z,28.12
2023-07-05T05:09:42.699Z,16.88
2023-07-05T05:10:42.297Z,11.25
2023-07-05T05:11:42.282Z,11.25
2023-07-05T05:12:42.272Z,11.25
2023-07-05T05:13:42.626Z,28.12
2023-07-05T05:14:42.258Z,33.75
2023-07-05T05:15:42.233Z,50.62
2023-07-05T05:16:42.228Z,67.50
2023-07-05T05:17:42.271Z,67.50
2023-07-05T05:18:42.516Z,56.25
2023-07-05T05:19:42.234Z,67.50
2023-07-05T05:20:42.164Z,67.50
2023-07-05T05:21:43.883Z,84.38
2023-07-05T05:22:42.142Z,90.00
2023-07-05T05:23:42.166Z,95.62
2023-07-05T05:24:42.132Z,56.25
2023-07-05T05:25:42.114Z,56.25
2023-07-05T05:26:42.098Z,39.38
2023-07-05T05:27:42.427Z,33.75
2023-07-05T05:28:43.126Z,45.00
2023-07-05T05:29:42.101Z,39.38
2023-07-05T05:30:43.923Z,39.38
2023-07-05T05:31:42.107Z,28.12
2023-07-05T05:32:42.045Z,39.38
2023-07-05T05:33:42.017Z,39.38
2023-07-05T05:34:41.995Z,33.75
2023-07-05T05:35:41.997Z,28.12
2023-07-05T05:36:41.977Z,28.12
2023-07-05T05:37:42.345Z,33.75
2023-07-05T05:38:41.959Z,33.75
2023-07-05T05:39:44.127Z,33.75
2023-07-05T05:40:41.923Z,33.75
2023-07-05T05:41:42.149Z,33.75
2023-07-05T05:42:41.904Z,28.12
2023-07-05T05:43:41.912Z,22.50
2023-07-05T05:44:41.908Z,16.88
2023-07-05T05:45:42.049Z,11.25
2023-07-05T05:46:42.257Z,11.25
2023-07-05T05:47:41.871Z,11.25
2023-07-05T05:48:41.839Z,11.25
2023-07-05T05:49:41.829Z,16.88
2023-07-05T05:50:41.835Z,16.88
2023-07-05T05:51:42.149Z,16.88
2023-07-05T05:52:41.779Z,16.88
2023-07-05T05:53:41.782Z,16.88
2023-07-05T05:54:41.765Z,11.25
2023-07-05T05:55:41.797Z,11.25
2023-07-05T05:56:41.735Z,11.25
2023-07-05T05:57:41.734Z,11.25
2023-07-05T05:58:41.724Z,16.88
2023-07-05T05:59:41.711Z,16.88
2023-07-05T06:00:41.963Z,16.88
2023-07-05T06:01:41.732Z,16.88
2023-07-05T06:02:41.683Z,22.50
2023-07-05T06:03:41.823Z,28.12
2023-07-05T06:04:42.009Z,28.12
2023-07-05T06:05:41.947Z,22.50
2023-07-05T06:06:41.615Z,22.50
2023-07-05T06:07:41.621Z,28.12
2023-07-05T06:08:41.596Z,28.12
2023-07-05T06:09:41.896Z,28.12
2023-07-05T06:10:41.584Z,33.75
2023-07-05T06:11:41.575Z,39.38
2023-07-05T06:12:41.543Z,45.00
2023-07-05T06:13:41.618Z,50.62
2023-07-05T06:14:41.842Z,56.25
2023-07-05T06:15:41.516Z,61.88
2023-07-05T06:16:41.514Z,67.50
2023-07-05T06:17:41.542Z,67.50
2023-07-05T06:18:42.119Z,73.12
2023-07-05T06:19:41.783Z,78.75
2023-07-05T06:20:41.441Z,73.12
2023-07-05T06:21:41.437Z,61.88
2023-07-05T06:22:41.418Z,50.62
2023-07-05T06:23:41.439Z,39.38
2023-07-05T06:24:41.393Z,39.38
2023-07-05T06:25:41.388Z,50.62
2023-07-05T06:26:41.367Z,67.50
2023-07-05T06:27:41.386Z,78.75
2023-07-05T06:28:41.642Z,73.12
2023-07-05T06:29:41.335Z,56.25
2023-07-05T06:30:41.341Z,50.62
2023-07-05T06:31:41.331Z,61.88
2023-07-05T06:32:41.644Z,67.50
2023-07-05T06:33:41.286Z,90.00
2023-07-05T06:34:41.266Z,146.25
2023-07-05T06:35:41.262Z,135.00
2023-07-05T06:36:41.251Z,123.75
2023-07-05T06:37:41.250Z,112.50
2023-07-05T06:38:41.225Z,286.88
2023-07-05T06:39:41.219Z,101.25
2023-07-05T06:40:41.207Z,191.25
2023-07-05T06:41:41.751Z,213.75
2023-07-05T06:42:41.503Z,213.75
2023-07-05T06:43:41.167Z,438.75
2023-07-05T06:44:41.151Z,635.62
2023-07-05T06:45:41.150Z,146.25
2023-07-05T06:46:41.300Z,461.25
2023-07-05T06:47:41.184Z,354.38
2023-07-05T06:48:41.120Z,393.75
2023-07-05T06:49:43.754Z,157.50
2023-07-05T06:50:41.082Z,151.88
2023-07-05T06:51:41.523Z,151.88
2023-07-05T06:52:41.070Z,174.38
2023-07-05T06:53:48.787Z,253.12
2023-07-05T06:54:41.042Z,118.12
2023-07-05T06:55:41.342Z,163.12
2023-07-05T06:56:41.560Z,534.38
2023-07-05T06:57:41.013Z,191.25
2023-07-05T06:58:41.014Z,140.62
2023-07-05T06:59:40.987Z,129.38
2023-07-05T07:00:41.090Z,163.12
2023-07-05T07:01:40.994Z,135.00
2023-07-05T07:02:41.001Z,163.12
2023-07-05T07:03:40.946Z,140.62
2023-07-05T07:04:41.085Z,174.38
2023-07-05T07:05:41.269Z,163.12
2023-07-05T07:06:40.910Z,140.62
2023-07-05T07:07:40.899Z,185.62
2023-07-05T07:08:40.888Z,157.50
2023-07-05T07:09:40.910Z,101.25
2023-07-05T07:10:41.373Z,135.00
2023-07-05T07:11:40.863Z,348.75
2023-07-05T07:12:40.846Z,151.88
2023-07-05T07:13:40.874Z,765.00
2023-07-05T07:14:40.842Z,568.12
2023-07-05T07:15:40.818Z,495.00
2023-07-05T07:16:40.887Z,849.38
2023-07-05T07:17:40.824Z,905.62
2023-07-05T07:18:41.100Z,826.88
2023-07-05T07:19:41.257Z,765.00
2023-07-05T07:20:40.751Z,652.50
2023-07-05T07:21:40.748Z,888.75
2023-07-05T07:22:40.772Z,1046.25
2023-07-05T07:23:41.076Z,905.62
2023-07-05T07:24:40.726Z,736.88
2023-07-05T07:25:40.704Z,697.50
2023-07-05T07:26:40.696Z,810.00
2023-07-05T07:27:40.690Z,877.50
2023-07-05T07:28:41.011Z,725.62
2023-07-05T07:29:40.668Z,646.88
2023-07-05T07:30:40.646Z,849.38
2023-07-05T07:31:40.667Z,945.00
2023-07-05T07:32:41.016Z,843.75
2023-07-05T07:33:40.931Z,793.12
2023-07-05T07:34:40.620Z,871.88
2023-07-05T07:35:40.597Z,984.38
2023-07-05T07:36:40.585Z,1029.38
2023-07-05T07:37:40.808Z,916.88
2023-07-05T07:38:40.565Z,838.12
2023-07-05T07:39:40.584Z,135.00
2023-07-05T07:40:40.559Z,213.75
2023-07-05T07:41:40.552Z,264.38
2023-07-05T07:42:40.998Z,382.50
2023-07-05T07:43:40.508Z,180.00
2023-07-05T07:44:40.524Z,871.88
2023-07-05T07:45:40.510Z,500.62
2023-07-05T07:46:40.938Z,129.38
2023-07-05T07:47:41.028Z,112.50
2023-07-05T07:48:40.464Z,84.38
2023-07-05T07:49:40.454Z,810.00
2023-07-05T07:50:40.447Z,163.12
2023-07-05T07:51:40.549Z,770.62
2023-07-05T07:52:40.437Z,95.62
2023-07-05T07:53:40.413Z,821.25
2023-07-05T07:54:40.399Z,720.00
2023-07-05T07:55:40.384Z,736.88
2023-07-05T07:56:40.729Z,303.75
2023-07-05T07:57:40.355Z,168.75
2023-07-05T07:58:40.353Z,736.88
2023-07-05T07:59:40.339Z,135.00
2023-07-05T08:00:40.656Z,157.50
2023-07-05T08:01:40.777Z,112.50
2023-07-05T08:02:40.363Z,95.62
2023-07-05T08:03:40.367Z,208.12
2023-07-05T08:04:40.381Z,112.50
2023-07-05T08:05:40.725Z,90.00
2023-07-05T08:06:40.275Z,748.12
2023-07-05T08:07:40.266Z,174.38
2023-07-05T08:08:40.249Z,78.75
2023-07-05T08:09:40.234Z,135.00
2023-07-05T08:10:40.571Z,663.75
2023-07-05T08:11:40.363Z,635.62
2023-07-05T08:12:40.207Z,697.50
2023-07-05T08:13:40.272Z,613.12
2023-07-05T08:14:40.697Z,568.12
2023-07-05T08:15:41.152Z,151.88
2023-07-05T08:16:40.173Z,691.88
2023-07-05T08:17:40.224Z,697.50
2023-07-05T08:18:40.148Z,714.38
2023-07-05T08:19:40.457Z,691.88
2023-07-05T08:20:40.127Z,697.50
2023-07-05T08:21:40.108Z,725.62
2023-07-05T08:22:40.104Z,832.50
2023-07-05T08:23:40.089Z,129.38
2023-07-05T08:24:40.497Z,112.50
2023-07-05T08:25:40.071Z,129.38
2023-07-05T08:26:40.074Z,106.88
2023-07-05T08:27:40.091Z,112.50
2023-07-05T08:28:40.446Z,146.25
2023-07-05T08:29:40.347Z,135.00
2023-07-05T08:30:40.030Z,135.00
2023-07-05T08:31:40.033Z,135.00
2023-07-05T08:32:40.044Z,112.50
2023-07-05T08:33:40.515Z,129.38
2023-07-05T08:34:39.996Z,129.38
2023-07-05T08:35:39.977Z,157.50
2023-07-05T08:36:39.979Z,157.50
2023-07-05T08:37:39.952Z,540.00
2023-07-05T08:38:40.282Z,618.75
2023-07-05T08:39:39.937Z,708.75
2023-07-05T08:40:39.971Z,618.75
2023-07-05T08:41:39.968Z,658.12
2023-07-05T08:42:40.225Z,714.38
2023-07-05T08:43:40.080Z,208.12
2023-07-05T08:44:39.898Z,776.25
2023-07-05T08:45:39.920Z,624.38
2023-07-05T08:46:39.897Z,731.25
2023-07-05T08:47:40.209Z,810.00
2023-07-05T08:48:39.849Z,753.75
2023-07-05T08:49:39.826Z,748.12
2023-07-05T08:50:41.097Z,258.75
2023-07-05T08:51:40.301Z,163.12
2023-07-05T08:52:40.160Z,112.50
2023-07-05T08:53:39.781Z,106.88
2023-07-05T08:54:39.784Z,292.50
2023-07-05T08:55:39.783Z,112.50
2023-07-05T08:56:40.071Z,101.25
2023-07-05T08:57:39.752Z,185.62
2023-07-05T08:58:39.758Z,106.88
2023-07-05T08:59:39.742Z,106.88
2023-07-05T09:00:39.719Z,112.50
2023-07-05T09:01:40.139Z,106.88
2023-07-05T09:02:39.787Z,106.88
2023-07-05T09:03:39.789Z,101.25
2023-07-05T09:04:39.680Z,118.12
2023-07-05T09:05:39.859Z,123.75
2023-07-05T09:06:39.981Z,123.75
2023-07-05T09:07:39.652Z,146.25
2023-07-05T09:08:39.638Z,106.88
2023-07-05T09:09:39.625Z,112.50
2023-07-05T09:10:40.086Z,112.50
2023-07-05T09:11:39.601Z,331.88
2023-07-05T09:12:39.651Z,185.62
2023-07-05T09:13:39.670Z,185.62
2023-07-05T09:14:39.572Z,146.25
2023-07-05T09:15:39.588Z,281.25
2023-07-05T09:16:42.522Z,360.00
2023-07-05T09:17:39.689Z,343.12
2023-07-05T09:18:39.540Z,343.12
2023-07-05T09:19:39.831Z,388.12
2023-07-05T09:20:39.802Z,168.75
2023-07-05T09:21:39.521Z,202.50
2023-07-05T09:22:40.881Z,478.12
2023-07-05T09:23:39.536Z,365.62
2023-07-05T09:24:39.897Z,444.38
2023-07-05T09:25:55.381Z,388.12
2023-07-05T09:26:39.447Z,225.00
2023-07-05T09:27:39.424Z,393.75
2023-07-05T09:28:39.426Z,444.38
2023-07-05T09:29:39.742Z,478.12
2023-07-05T09:30:39.471Z,286.88
2023-07-05T09:31:39.403Z,146.25
2023-07-05T09:32:39.403Z,157.50
2023-07-05T09:33:39.700Z,129.38
2023-07-05T09:34:39.701Z,123.75
2023-07-05T09:35:39.348Z,118.12
2023-07-05T09:36:39.331Z,112.50
2023-07-05T09:37:39.316Z,95.62
2023-07-05T09:38:39.657Z,84.38
2023-07-05T09:39:39.308Z,84.38
2023-07-05T09:40:39.309Z,95.62
2023-07-05T09:41:39.277Z,84.38
2023-07-05T09:42:39.266Z,78.75
2023-07-05T09:43:39.572Z,90.00
2023-07-05T09:44:39.251Z,112.50
2023-07-05T09:45:39.232Z,118.12
2023-07-05T09:46:39.412Z,123.75
2023-07-05T09:47:39.557Z,129.38
2023-07-05T09:48:39.756Z,135.00
2023-07-05T09:49:39.196Z,140.62
2023-07-05T09:50:39.190Z,129.38
2023-07-05T09:51:39.166Z,118.12
2023-07-05T09:52:39.188Z,106.88
2023-07-05T09:53:39.185Z,95.62
2023-07-05T09:54:39.144Z,90.00
2023-07-05T09:55:39.128Z,112.50
2023-07-05T09:56:39.127Z,123.75
2023-07-05T09:57:39.425Z,112.50
2023-07-05T09:58:39.109Z,106.88
2023-07-05T09:59:39.102Z,95.62
2023-07-05T10:00:39.085Z,90.00
2023-07-05T10:01:39.477Z,95.62
2023-07-05T10:02:39.471Z,101.25
2023-07-05T10:03:39.104Z,146.25
2023-07-05T10:04:39.038Z,168.75
2023-07-05T10:05:39.034Z,168.75
2023-07-05T10:06:39.452Z,168.75
2023-07-05T10:07:38.999Z,185.62
2023-07-05T10:08:38.995Z,281.25
2023-07-05T10:09:38.979Z,196.88
2023-07-05T10:10:38.987Z,185.62
2023-07-05T10:11:39.318Z,174.38
2023-07-05T10:12:38.955Z,157.50
2023-07-05T10:13:38.993Z,135.00
2023-07-05T10:14:38.936Z,123.75
2023-07-05T10:15:39.289Z,112.50
2023-07-05T10:16:39.347Z,106.88
2023-07-05T10:17:38.928Z,106.88
2023-07-05T10:18:38.887Z,95.62
2023-07-05T10:19:38.872Z,84.38
2023-07-05T10:20:39.141Z,84.38
2023-07-05T10:21:38.856Z,95.62
2023-07-05T10:22:38.853Z,90.00
2023-07-05T10:23:38.829Z,95.62
2023-07-05T10:24:38.825Z,95.62
2023-07-05T10:25:38.828Z,95.62
2023-07-05T10:26:38.809Z,112.50
2023-07-05T10:27:38.789Z,101.25
2023-07-05T10:28:38.820Z,95.62
2023-07-05T10:29:39.120Z,106.88
2023-07-05T10:30:39.087Z,118.12
2023-07-05T10:31:38.788Z,106.88
2023-07-05T10:32:38.754Z,90.00
2023-07-05T10:33:38.852Z,90.00
2023-07-05T10:34:39.064Z,90.00
2023-07-05T10:35:38.715Z,78.75
2023-07-05T10:36:38.701Z,73.12
2023-07-05T10:37:38.680Z,73.12
2023-07-05T10:38:39.016Z,78.75
2023-07-05T10:39:39.241Z,84.38
2023-07-05T10:40:38.666Z,78.75
2023-07-05T10:41:38.641Z,84.38
2023-07-05T10:42:38.652Z,84.38
2023-07-05T10:43:39.119Z,78.75
2023-07-05T10:44:38.643Z,95.62
2023-07-05T10:45:38.610Z,135.00
2023-07-05T10:46:38.701Z,174.38
2023-07-05T10:47:38.606Z,185.62
2023-07-05T10:48:38.899Z,180.00
2023-07-05T10:49:38.565Z,174.38
2023-07-05T10:50:38.557Z,163.12
2023-07-05T10:51:38.540Z,157.50
2023-07-05T10:52:38.547Z,202.50
2023-07-05T10:53:39.051Z,185.62
2023-07-05T10:54:38.508Z,168.75
2023-07-05T10:55:38.506Z,146.25
2023-07-05T10:56:38.487Z,123.75
2023-07-05T10:57:38.993Z,123.75
2023-07-05T10:58:38.473Z,123.75
2023-07-05T10:59:38.837Z,118.12
2023-07-05T11:00:38.452Z,112.50
2023-07-05T11:01:38.462Z,106.88
2023-07-05T11:02:38.946Z,112.50
2023-07-05T11:03:38.418Z,118.12
2023-07-05T11:04:38.461Z,135.00
2023-07-05T11:05:38.389Z,129.38
2023-07-05T11:06:38.712Z,112.50
2023-07-05T11:07:38.558Z,84.38
2023-07-05T11:08:38.362Z,90.00
2023-07-05T11:09:38.375Z,95.62
2023-07-05T11:10:38.375Z,84.38
2023-07-05T11:11:38.660Z,90.00
2023-07-05T11:12:38.316Z,106.88
2023-07-05T11:13:38.342Z,123.75
2023-07-05T11:14:38.304Z,140.62
2023-07-05T11:15:38.282Z,151.88
2023-07-05T11:16:38.682Z,146.25
2023-07-05T11:17:38.317Z,157.50
2023-07-05T11:18:38.257Z,163.12
2023-07-05T11:19:38.228Z,247.50
2023-07-05T11:20:38.271Z,174.38
2023-07-05T11:21:38.229Z,196.88
2023-07-05T11:22:38.234Z,168.75
2023-07-05T11:23:38.242Z,151.88
2023-07-05T11:24:38.195Z,196.88
2023-07-05T11:25:38.490Z,146.25
2023-07-05T11:26:38.183Z,135.00
2023-07-05T11:27:38.147Z,118.12
2023-07-05T11:28:38.153Z,157.50
2023-07-05T11:29:38.478Z,292.50
2023-07-05T11:30:38.403Z,275.62
2023-07-05T11:31:38.134Z,225.00
2023-07-05T11:32:38.116Z,196.88
2023-07-05T11:33:38.123Z,118.12
2023-07-05T11:34:38.470Z,129.38
2023-07-05T11:35:38.060Z,135.00
2023-07-05T11:36:38.058Z,146.25
2023-07-05T11:37:38.042Z,163.12
2023-07-05T11:38:38.043Z,230.62
2023-07-05T11:39:38.389Z,225.00
2023-07-05T11:40:38.012Z,163.12
2023-07-05T11:41:37.995Z,151.88
2023-07-05T11:42:37.997Z,163.12
2023-07-05T11:43:38.328Z,140.62
2023-07-05T11:44:38.372Z,151.88
2023-07-05T11:45:37.990Z,225.00
2023-07-05T11:46:37.965Z,219.38
2023-07-05T11:47:38.029Z,129.38
2023-07-05T11:48:38.434Z,123.75
2023-07-05T11:49:37.944Z,180.00
2023-07-05T11:50:37.904Z,180.00
2023-07-05T11:51:38.672Z,219.38
2023-07-05T11:52:37.881Z,202.50
2023-07-05T11:53:38.223Z,191.25
2023-07-05T11:54:37.868Z,208.12
2023-07-05T11:55:37.862Z,202.50
2023-07-05T11:56:37.845Z,180.00
2023-07-05T11:57:38.380Z,112.50
2023-07-05T11:58:38.049Z,151.88
2023-07-05T11:59:37.896Z,157.50
2023-07-05T12:00:37.804Z,101.25
2023-07-05T12:01:38.026Z,140.62
2023-07-05T12:02:38.194Z,180.00
2023-07-05T12:03:37.829Z,101.25
2023-07-05T12:04:37.757Z,129.38
2023-07-05T12:05:37.753Z,112.50
2023-07-05T12:06:37.738Z,146.25
2023-07-05T12:07:38.080Z,208.12
2023-07-05T12:08:37.727Z,151.88
2023-07-05T12:09:37.731Z,151.88
2023-07-05T12:10:37.720Z,157.50
2023-07-05T12:11:38.015Z,146.25
2023-07-05T12:12:38.036Z,196.88
2023-07-05T12:13:37.715Z,202.50
2023-07-05T12:14:37.674Z,185.62
2023-07-05T12:15:37.664Z,163.12
2023-07-05T12:16:38.063Z,140.62
2023-07-05T12:17:37.666Z,140.62
2023-07-05T12:18:37.628Z,140.62
2023-07-05T12:19:37.636Z,135.00
2023-07-05T12:20:37.604Z,146.25
2023-07-05T12:21:38.000Z,146.25
2023-07-05T12:22:37.593Z,135.00
2023-07-05T12:23:37.587Z,135.00
2023-07-05T12:24:37.568Z,90.00
2023-07-05T12:25:37.599Z,140.62
2023-07-05T12:26:37.574Z,168.75
2023-07-05T12:27:37.538Z,135.00
2023-07-05T12:28:37.515Z,163.12
2023-07-05T12:29:37.513Z,185.62
2023-07-05T12:30:37.548Z,157.50
2023-07-05T12:31:37.588Z,191.25
2023-07-05T12:32:37.512Z,140.62
2023-07-05T12:33:37.479Z,129.38
2023-07-05T12:34:37.463Z,118.12
2023-07-05T12:35:37.486Z,129.38
2023-07-05T12:36:37.443Z,129.38
2023-07-05T12:37:37.426Z,191.25
2023-07-05T12:38:37.410Z,146.25
2023-07-05T12:39:37.445Z,219.38
2023-07-05T12:40:37.397Z,157.50
2023-07-05T12:41:37.418Z,202.50
2023-07-05T12:42:37.363Z,146.25
2023-07-05T12:43:37.362Z,202.50
2023-07-05T12:44:37.705Z,191.25
2023-07-05T12:45:37.364Z,163.12
2023-07-05T12:46:37.373Z,135.00
2023-07-05T12:47:37.379Z,61.88
2023-07-05T12:48:37.301Z,73.12
2023-07-05T12:49:37.623Z,84.38
2023-07-05T12:50:37.278Z,84.38